Aérodrome :
LOGIN :

S'inscrire | Disclaimer

   EN    FR    IT 

 










Légende :    VFR   VFR Marginal   IFR   IFR Intensif   IFR Très Intensif
Visi : 
Plafond : 
>= 8 km
>= 3000ft
5 à 8 km
1000 à 3000 ft
1500m à 5 km
500 à 1000 ft
800 à 1500m
200 à 500 ft
< 800m
< 200 ft
Symboles :   Orages  Brouillard  Fortes neiges  Fortes précipitations  Vent > 20 kt
SIGMETs :   Divers  Orages  Givrage  Turbulence  Onde Orograph.  Cendres Volcan.







- Altitude de l'aérodrome : 32 ft
- Code IATA : LKZ


EGUL - RAF Lakenheath

DERNIER METAR :
  • 140626Z AUTO 28008KT 9999 FEW021 OVC031 15/13 A2994 RMK AO2 SLP142 $

METARs EXPIRÉS :
  • 140556Z AUTO 28007KT 9999 OVC029 15/12 A2993 RMK AO2 OVC V BKN CIG 028 RWY06 SLP138 T01490124 10167 20142 52015 $
  • 140541Z AUTO 28007KT 9999 BKN029 15/12 A2992 RMK AO2 BKN V SCT SLP135 $
  • 140526Z AUTO 26006KT 9999 FEW029 14/12 A2992 RMK AO2 SLP135 $
  • 140456Z AUTO 28008KT 9999 BKN027 15/12 A2991 RMK AO2 SLP132 T01460123 $
  • 140441Z AUTO 27006KT 9999 OVC025 15/13 A2990 RMK AO2 SLP128 $
  • 140356Z AUTO 28007KT 9999 OVC021 15/13 A2989 RMK AO2 SLP125 T01520127 $

TAF AMD TAF EGUL
Valide du 14 à 06h jusqu'au 15 à 10h UTC


140601Z 1406/1510 29009KT 9999 BKN025 OVC050 QNH2988INS
BECMG 1412/1413 27010G15KT 9999 SCT020 BKN040 QNH2995INS
BECMG 1419/1420 VRB06KT 8000 BR SCT010 BKN025 QNH2997INS
BECMG 1505/1506 24009KT 9999 NSW BKN010 QNH2999INS TX22/1414Z TN14/1504Z
Pas de NOTAMs connus pour ce terrain.



MET'MAP, la Météo Aéronautique d'un coup d'oeil ! - Copyright ORBIFLY Décembre 2007 - Disclaimer

ORBIFLY MET'MAP TEAM :

Programmation & Développement : Alexandra Zaïnal
Conception & Développement : Baudouin d'Aumeries
Co-Programmation & Développement : Marc-Olivier Méhu
Soutien technique & logistique : Manuel Goepfert

Contact : metmap@orbifly.com




SOURCES & CREDITS :

   NOAA